Nineveh Junction, New York
Current Conditions -  °F | °C
As of 9:08 AM on Monday 26 Jan 2015 (Local Time) from KBGM Reporting Station
Light Snow Light Snow  
Wind Chill: -8°   Ceiling: 2700
Heat Index:   Visibility: 1mi
Dew Point:   Wind: 13mph
Humidity: 83%   Direction: 70°ENE
Pressure: 29.85"   Gusts: NA
Location:  42.2584°N, 75.57°W
Report Text: KBGM 261408Z 07011KT 1SM -SN BR OVC027 M13/M16 A2985 RMK AO2 SFC VIS 1 1/4 P0001 T11331156
Loading
Personal Weather Stations






























Interactive Weather Map New forecast layout! Learn more

10-Day Weather Forecast

Advertisements
Track Severe Weather on mobile